Time;durP1;ratioP1;P1;durP2;ratioP2;P2;SDS_P1;SDS_P2;PMS_P1;PMS_P2;Temp;Humidity;BMP_temperature;BMP_pressure;BME280_temperature;BME280_humidity;BME280_pressure;Samples;Min_cycle;Max_cycle;Signal;HPM_P1;HPM_P2
2021/08/09 00:02:12;;;;;;;7.30;5.30;;;19.20;99.90;;;;;;5106792;27;20465;-68
2021/08/09 00:04:39;;;;;;;5.33;2.60;;;19.20;99.90;;;;;;5103233;28;20472;-68
2021/08/09 00:07:07;;;;;;;5.67;5.17;;;19.10;99.90;;;;;;5111670;27;20472;-68
2021/08/09 00:09:34;;;;;;;2.40;2.20;;;19.10;99.90;;;;;;5112065;27;20472;-68
2021/08/09 00:12:01;;;;;;;2.70;2.50;;;19.10;99.90;;;;;;5114333;27;20464;-68
2021/08/09 00:14:28;;;;;;;5.07;2.73;;;19.10;99.90;;;;;;5107541;28;20487;-68
2021/08/09 00:16:57;;;;;;;3.13;2.87;;;19.10;99.90;;;;;;5104019;27;20469;-68
2021/08/09 00:19:24;;;;;;;3.33;3.07;;;19.00;99.90;;;;;;5107936;27;20465;-68
2021/08/09 00:21:51;;;;;;;3.17;2.63;;;19.00;99.90;;;;;;5111165;27;20482;-67
2021/08/09 00:24:18;;;;;;;1.90;1.67;;;18.90;99.90;;;;;;5100054;27;20549;-68
2021/08/09 00:26:45;;;;;;;3.57;3.00;;;18.90;99.90;;;;;;5119139;27;20515;-67
2021/08/09 00:29:12;;;;;;;2.70;2.43;;;18.90;99.90;;;;;;5102063;28;20966;-68
2021/08/09 00:31:39;;;;;;;3.40;3.10;;;18.90;99.90;;;;;;5111857;27;20459;-68
2021/08/09 00:34:07;;;;;;;2.70;2.50;;;18.80;99.90;;;;;;5109656;28;20480;-68
2021/08/09 00:36:34;;;;;;;2.80;2.33;;;18.80;99.90;;;;;;5099118;28;20475;-68
2021/08/09 00:39:01;;;;;;;2.37;2.10;;;18.80;99.90;;;;;;5105273;28;20465;-68
2021/08/09 00:41:28;;;;;;;2.37;2.17;;;18.80;99.90;;;;;;5110039;28;20964;-67
2021/08/09 00:43:55;;;;;;;2.47;2.00;;;18.70;99.90;;;;;;5111039;27;20480;-68
2021/08/09 00:46:23;;;;;;;2.37;1.83;;;18.70;99.90;;;;;;5103803;28;20471;-68
2021/08/09 00:48:50;;;;;;;3.70;2.30;;;18.70;99.90;;;;;;5112714;28;20533;-68
2021/08/09 00:51:18;;;;;;;1.83;1.73;;;18.60;99.90;;;;;;5113459;27;20968;-67
2021/08/09 00:53:45;;;;;;;3.27;2.67;;;18.70;99.90;;;;;;5110333;28;20471;-68
2021/08/09 00:56:12;;;;;;;2.50;2.27;;;18.60;99.90;;;;;;5113535;28;20457;-68
2021/08/09 00:58:39;;;;;;;2.33;2.13;;;18.60;99.90;;;;;;5108235;28;20800;-68
2021/08/09 01:01:07;;;;;;;2.20;1.97;;;18.70;99.90;;;;;;5109321;27;20464;-67
2021/08/09 01:03:34;;;;;;;1.90;1.80;;;18.60;99.90;;;;;;5102538;28;20469;-67
2021/08/09 01:06:01;;;;;;;2.00;1.80;;;18.60;99.90;;;;;;5111403;27;20966;-68
2021/08/09 01:08:43;;;;;;;2.60;1.80;;;18.60;99.90;;;;;;5113490;27;20965;-67
2021/08/09 01:11:15;;;;;;;2.40;2.17;;;18.60;99.90;;;;;;5104507;28;20473;-67
2021/08/09 01:13:53;;;;;;;2.03;1.67;;;18.50;99.90;;;;;;5104034;28;20473;-67
2021/08/09 01:16:26;;;;;;;2.57;2.37;;;18.50;99.90;;;;;;5110165;27;20832;-68
2021/08/09 01:18:57;;;;;;;3.13;2.93;;;18.50;99.90;;;;;;5102604;28;20491;-67
2021/08/09 01:21:26;;;;;;;2.43;2.23;;;18.40;99.90;;;;;;5110916;28;20471;-67
2021/08/09 01:24:08;;;;;;;3.10;2.37;;;18.50;99.90;;;;;;5102129;27;20471;-67
2021/08/09 01:26:41;;;;;;;2.93;2.00;;;18.40;99.90;;;;;;5106992;28;20457;-67
2021/08/09 01:29:13;;;;;;;2.80;2.00;;;18.40;99.90;;;;;;5100203;28;20476;-68
2021/08/09 01:31:45;;;;;;;4.20;1.67;;;18.40;99.90;;;;;;5106268;27;20463;-67
2021/08/09 01:34:14;;;;;;;2.23;2.03;;;18.40;99.90;;;;;;5103503;27;20452;-67
2021/08/09 01:36:43;;;;;;;2.10;1.87;;;18.40;99.90;;;;;;5101930;28;20990;-68
2021/08/09 01:39:11;;;;;;;2.97;1.87;;;18.30;99.90;;;;;;5109126;27;20475;-67
2021/08/09 01:41:40;;;;;;;1.60;1.50;;;18.30;99.90;;;;;;5111502;27;20478;-68
2021/08/09 01:44:09;;;;;;;5.47;1.87;;;18.30;99.90;;;;;;5101621;27;20477;-67
2021/08/09 01:46:37;;;;;;;7.90;5.70;;;18.30;99.90;;;;;;5106461;28;20976;-67
2021/08/09 01:49:07;;;;;;;5.80;2.20;;;18.30;99.90;;;;;;5112052;27;20475;-67
2021/08/09 01:51:35;;;;;;;2.40;2.17;;;18.20;99.90;;;;;;5096187;28;20477;-68
2021/08/09 01:54:03;;;;;;;2.70;2.50;;;18.20;99.90;;;;;;5095167;28;20465;-68
2021/08/09 01:56:32;;;;;;;2.80;2.10;;;18.20;99.90;;;;;;5106282;28;20469;-67
2021/08/09 01:58:59;;;;;;;2.67;2.47;;;18.20;99.90;;;;;;5110598;28;20476;-67
2021/08/09 02:01:28;;;;;;;2.40;2.20;;;18.10;99.90;;;;;;5105998;27;20528;-68
2021/08/09 02:03:55;;;;;;;3.00;2.80;;;18.10;99.90;;;;;;5114327;27;20467;-67
2021/08/09 02:06:22;;;;;;;2.43;2.23;;;18.10;99.90;;;;;;5110962;28;20979;-67
2021/08/09 02:08:49;;;;;;;3.93;3.00;;;18.10;99.90;;;;;;5109816;28;20523;-67
2021/08/09 02:11:19;;;;;;;2.40;2.20;;;18.10;99.90;;;;;;5099767;28;20461;-68
2021/08/09 02:13:50;;;;;;;17.17;12.63;;;18.10;99.90;;;;;;5110387;28;20474;-68
2021/08/09 02:16:21;;;;;;;3.93;2.10;;;18.10;99.90;;;;;;5099388;27;20447;-67
2021/08/09 02:18:55;;;;;;;1.97;1.77;;;18.00;99.90;;;;;;5102222;28;20475;-68
2021/08/09 02:21:27;;;;;;;4.47;2.40;;;18.00;99.90;;;;;;5112168;28;20467;-68
2021/08/09 02:23:59;;;;;;;4.57;4.00;;;18.00;99.90;;;;;;5099871;28;20470;-68
2021/08/09 02:26:29;;;;;;;4.77;2.60;;;18.00;99.90;;;;;;5106039;27;20449;-67
2021/08/09 02:29:01;;;;;;;2.03;1.93;;;18.00;99.90;;;;;;5109381;28;20477;-67
2021/08/09 02:31:31;;;;;;;5.07;4.57;;;18.00;99.90;;;;;;5111858;28;21230;-68
2021/08/09 02:34:02;;;;;;;4.20;3.50;;;18.00;99.90;;;;;;5101396;28;20978;-67
2021/08/09 02:36:29;;;;;;;4.27;2.30;;;17.90;99.90;;;;;;5109512;27;20848;-67
2021/08/09 02:38:57;;;;;;;2.03;1.93;;;17.90;99.90;;;;;;5112340;27;20471;-68
2021/08/09 02:41:25;;;;;;;3.07;2.77;;;17.90;99.90;;;;;;5111163;28;20458;-68
2021/08/09 02:43:52;;;;;;;2.73;1.83;;;17.90;99.90;;;;;;5103714;28;20477;-68
2021/08/09 02:46:20;;;;;;;2.37;1.90;;;17.90;99.90;;;;;;5109708;28;20492;-67
2021/08/09 02:48:48;;;;;;;2.20;1.87;;;17.80;99.90;;;;;;5112247;28;20812;-67
2021/08/09 02:51:19;;;;;;;2.13;2.00;;;17.80;99.90;;;;;;5101679;28;20467;-68
2021/08/09 02:53:47;;;;;;;3.90;1.60;;;17.80;99.90;;;;;;5112534;28;20470;-67
2021/08/09 02:56:14;;;;;;;2.40;2.20;;;17.80;99.90;;;;;;5106313;28;20961;-67
2021/08/09 02:58:42;;;;;;;2.10;2.00;;;17.80;99.90;;;;;;5102054;28;20483;-68
2021/08/09 03:01:10;;;;;;;1.77;1.50;;;17.70;99.90;;;;;;5108759;27;20484;-68
2021/08/09 03:03:38;;;;;;;3.20;1.73;;;17.70;99.90;;;;;;5109270;27;20464;-68
2021/08/09 03:06:07;;;;;;;2.20;2.00;;;17.70;99.90;;;;;;5108018;28;20471;-68
2021/08/09 03:08:37;;;;;;;2.13;1.93;;;17.70;99.90;;;;;;5115508;27;20905;-68
2021/08/09 03:11:04;;;;;;;1.87;1.47;;;17.70;99.90;;;;;;5114398;28;20485;-68
2021/08/09 03:13:31;;;;;;;1.90;1.80;;;17.70;99.90;;;;;;5115517;27;20786;-68
2021/08/09 03:15:58;;;;;;;2.43;2.23;;;17.70;99.90;;;;;;5112980;27;20796;-68
2021/08/09 03:18:32;;;;;;;3.30;2.13;;;17.70;99.90;;;;;;5114281;28;20492;-68
2021/08/09 03:20:59;;;;;;;2.37;1.80;;;17.70;99.90;;;;;;5105865;27;20530;-68
2021/08/09 03:23:26;;;;;;;2.80;1.77;;;17.70;99.90;;;;;;5110881;28;20807;-68
2021/08/09 03:25:55;;;;;;;3.40;2.10;;;17.60;99.90;;;;;;5111273;27;20483;-68
2021/08/09 03:28:22;;;;;;;2.63;1.90;;;17.60;99.90;;;;;;5103848;28;20473;-68
2021/08/09 03:30:48;;;;;;;4.10;2.23;;;17.60;99.90;;;;;;5114324;27;20462;-68
2021/08/09 03:33:15;;;;;;;2.23;2.03;;;17.60;99.90;;;;;;5113722;28;20463;-68
2021/08/09 03:35:42;;;;;;;1.90;1.80;;;17.60;99.90;;;;;;5103647;28;20797;-67
2021/08/09 03:38:09;;;;;;;2.23;2.00;;;17.60;99.90;;;;;;5115073;27;20480;-68
2021/08/09 03:40:36;;;;;;;4.00;1.93;;;17.60;99.90;;;;;;5110901;27;20463;-68
2021/08/09 03:43:05;;;;;;;3.53;1.83;;;17.50;99.90;;;;;;5105721;28;20465;-68
2021/08/09 03:45:32;;;;;;;2.30;2.10;;;17.50;99.90;;;;;;5109155;28;20796;-68
2021/08/09 03:47:59;;;;;;;17.07;12.93;;;17.40;99.90;;;;;;5103618;27;20471;-68
2021/08/09 03:50:26;;;;;;;2.37;1.97;;;17.40;99.90;;;;;;5107805;28;20468;-68
2021/08/09 03:52:55;;;;;;;3.77;2.27;;;17.40;99.90;;;;;;5112794;27;20472;-67
2021/08/09 03:55:22;;;;;;;4.73;2.00;;;17.40;99.90;;;;;;5113015;28;20476;-67
2021/08/09 03:57:49;;;;;;;2.93;2.40;;;17.40;99.90;;;;;;5109486;28;20468;-67
2021/08/09 04:00:18;;;;;;;2.47;2.27;;;17.40;99.90;;;;;;5109102;28;20472;-68
2021/08/09 04:02:45;;;;;;;2.17;2.07;;;17.50;99.90;;;;;;5099473;27;20471;-68
2021/08/09 04:05:13;;;;;;;2.63;2.43;;;17.50;99.90;;;;;;5114720;27;20545;-68
2021/08/09 04:07:40;;;;;;;2.73;2.37;;;17.40;99.90;;;;;;5112810;28;20452;-68
2021/08/09 04:10:08;;;;;;;3.53;3.23;;;17.40;99.90;;;;;;5108329;27;21014;-68
2021/08/09 04:12:35;;;;;;;2.50;2.07;;;17.40;99.90;;;;;;5114157;27;20453;-68
2021/08/09 04:15:02;;;;;;;4.00;2.40;;;17.40;99.90;;;;;;5101232;28;20826;-68
2021/08/09 04:17:30;;;;;;;2.87;2.37;;;17.40;99.90;;;;;;5099931;28;20833;-68
2021/08/09 04:19:57;;;;;;;3.93;2.63;;;17.40;99.90;;;;;;5105327;28;20468;-68
2021/08/09 04:22:24;;;;;;;2.63;1.70;;;17.40;99.90;;;;;;5105524;27;20461;-68
2021/08/09 04:24:51;;;;;;;3.53;2.20;;;17.40;99.90;;;;;;5100530;28;20784;-68
2021/08/09 04:27:18;;;;;;;2.87;2.07;;;17.40;99.90;;;;;;5116281;27;20469;-68
2021/08/09 04:29:45;;;;;;;2.27;2.17;;;17.40;99.90;;;;;;5108303;27;20470;-68
2021/08/09 04:32:14;;;;;;;2.80;2.03;;;17.40;99.90;;;;;;5112074;28;20469;-68
2021/08/09 04:34:42;;;;;;;2.27;2.17;;;17.40;99.90;;;;;;5101985;28;20593;-68
2021/08/09 04:37:10;;;;;;;3.90;3.53;;;17.40;99.90;;;;;;5100464;28;20468;-67
2021/08/09 04:39:37;;;;;;;2.37;2.17;;;17.50;99.90;;;;;;5113968;27;20791;-67
2021/08/09 04:42:04;;;;;;;3.30;2.03;;;17.50;99.90;;;;;;5114152;27;20954;-68
2021/08/09 04:44:31;;;;;;;3.07;2.73;;;17.40;99.90;;;;;;5104126;28;20481;-68
2021/08/09 04:46:58;;;;;;;2.40;2.10;;;17.50;99.90;;;;;;5107460;28;20469;-67
2021/08/09 04:49:25;;;;;;;2.33;2.13;;;17.50;99.90;;;;;;5102852;28;20471;-68
2021/08/09 04:51:54;;;;;;;3.37;2.53;;;17.50;99.90;;;;;;5100070;28;20458;-68
2021/08/09 04:54:21;;;;;;;8.03;2.60;;;17.50;99.90;;;;;;5103485;28;20485;-68
2021/08/09 04:56:48;;;;;;;4.77;2.30;;;17.50;99.90;;;;;;5107232;28;20816;-67
2021/08/09 04:59:15;;;;;;;2.77;2.10;;;17.50;99.90;;;;;;5103853;28;20466;-68
2021/08/09 05:01:42;;;;;;;2.53;2.33;;;17.60;99.90;;;;;;5109399;27;20473;-68
2021/08/09 05:04:09;;;;;;;7.93;6.97;;;17.60;99.90;;;;;;5113747;28;20479;-67
2021/08/09 05:06:36;;;;;;;5.13;4.63;;;17.60;99.90;;;;;;5109116;28;20477;-67
2021/08/09 05:09:04;;;;;;;3.93;3.13;;;17.60;99.90;;;;;;5104402;28;20485;-67
2021/08/09 05:11:31;;;;;;;3.57;3.20;;;17.60;99.90;;;;;;5113070;27;20482;-67
2021/08/09 05:13:58;;;;;;;3.63;2.40;;;17.70;99.90;;;;;;5102082;27;20968;-68
2021/08/09 05:16:25;;;;;;;2.70;2.47;;;17.80;99.90;;;;;;5106504;28;20799;-68
2021/08/09 05:18:55;;;;;;;2.17;2.07;;;17.70;99.90;;;;;;5104843;28;20471;-68
2021/08/09 05:21:22;;;;;;;3.40;2.40;;;17.80;99.90;;;;;;5099432;28;20808;-68
2021/08/09 05:23:49;;;;;;;2.70;2.00;;;17.80;99.90;;;;;;5101021;28;20467;-68
2021/08/09 05:26:18;;;;;;;2.53;2.33;;;17.90;99.90;;;;;;5117832;27;20463;-68
2021/08/09 05:28:45;;;;;;;3.20;2.53;;;17.80;99.90;;;;;;5099553;28;20962;-68
2021/08/09 05:31:13;;;;;;;4.20;2.50;;;17.90;99.90;;;;;;5106704;28;20475;-68
2021/08/09 05:33:40;;;;;;;9.50;7.80;;;17.80;99.90;;;;;;5105532;28;20466;-68
2021/08/09 05:36:07;;;;;;;6.60;5.20;;;17.90;99.90;;;;;;5093933;28;20465;-68
2021/08/09 05:38:35;;;;;;;3.77;3.47;;;17.90;99.90;;;;;;5105629;28;20807;-68
2021/08/09 05:41:02;;;;;;;5.40;4.70;;;17.90;99.90;;;;;;5113364;27;20810;-68
2021/08/09 05:43:31;;;;;;;7.43;5.27;;;18.00;99.90;;;;;;5111596;28;20464;-68
2021/08/09 05:45:58;;;;;;;3.40;3.10;;;18.00;99.90;;;;;;5101157;28;20466;-68
2021/08/09 05:48:25;;;;;;;4.50;2.80;;;18.10;99.90;;;;;;5098742;28;20472;-68
2021/08/09 05:50:52;;;;;;;3.40;3.10;;;18.10;99.90;;;;;;5104887;28;20487;-68
2021/08/09 05:53:19;;;;;;;2.53;2.17;;;18.20;99.90;;;;;;5106345;28;20463;-68
2021/08/09 05:55:45;;;;;;;4.43;2.43;;;18.20;99.90;;;;;;5101059;28;20460;-68
2021/08/09 05:58:12;;;;;;;6.17;2.47;;;18.30;99.90;;;;;;5099164;28;20503;-68
2021/08/09 06:00:41;;;;;;;2.43;2.00;;;18.30;99.90;;;;;;5107916;27;20467;-68
2021/08/09 06:03:08;;;;;;;4.03;2.87;;;18.40;99.90;;;;;;5112752;28;20468;-68
2021/08/09 06:05:34;;;;;;;2.93;2.53;;;18.50;99.90;;;;;;5112578;28;20465;-68
2021/08/09 06:08:02;;;;;;;4.53;2.90;;;18.60;99.90;;;;;;5098908;28;20530;-68
2021/08/09 06:10:29;;;;;;;3.50;2.50;;;18.60;99.90;;;;;;5112453;27;20486;-68
2021/08/09 06:12:56;;;;;;;6.10;4.50;;;18.70;99.90;;;;;;5110222;28;20475;-68
2021/08/09 06:15:23;;;;;;;5.40;3.30;;;18.70;99.90;;;;;;5101910;28;20472;-68
2021/08/09 06:17:51;;;;;;;2.80;2.60;;;18.80;99.90;;;;;;5112557;28;21223;-68
2021/08/09 06:20:18;;;;;;;3.47;2.70;;;18.80;99.90;;;;;;5102824;28;20469;-67
2021/08/09 06:22:45;;;;;;;3.10;2.50;;;18.90;99.90;;;;;;5105533;28;20465;-67
2021/08/09 06:25:12;;;;;;;5.67;3.77;;;18.90;99.90;;;;;;5104785;28;20475;-67
2021/08/09 06:27:41;;;;;;;4.13;3.40;;;19.00;99.90;;;;;;5111497;27;20480;-66
2021/08/09 06:30:08;;;;;;;5.43;3.10;;;19.10;99.90;;;;;;5103309;28;20479;-66
2021/08/09 06:32:35;;;;;;;2.40;2.20;;;19.20;99.90;;;;;;5098671;28;20469;-67
2021/08/09 06:35:04;;;;;;;3.63;2.37;;;19.30;99.90;;;;;;5101135;28;20815;-68
2021/08/09 06:37:31;;;;;;;3.60;2.37;;;19.40;99.90;;;;;;5098370;28;20488;-67
2021/08/09 06:40:02;;;;;;;2.90;2.03;;;19.50;99.90;;;;;;5112763;28;20471;-68
2021/08/09 06:42:29;;;;;;;2.30;2.20;;;19.60;99.90;;;;;;5116260;27;20503;-68
2021/08/09 06:44:56;;;;;;;2.40;2.20;;;19.60;99.90;;;;;;5111284;27;20462;-68
2021/08/09 06:47:25;;;;;;;3.40;2.90;;;19.70;99.90;;;;;;5108310;28;20464;-69
2021/08/09 06:49:52;;;;;;;2.43;2.23;;;19.80;99.90;;;;;;5101936;28;20457;-68
2021/08/09 06:52:20;;;;;;;2.77;2.33;;;19.80;99.90;;;;;;5104032;27;20465;-69
2021/08/09 06:54:47;;;;;;;5.53;2.20;;;19.80;99.90;;;;;;5109472;28;20452;-68
2021/08/09 06:57:14;;;;;;;2.70;2.20;;;20.00;99.90;;;;;;5108702;28;20464;-66
2021/08/09 06:59:41;;;;;;;7.90;3.20;;;20.00;99.90;;;;;;5101999;28;20844;-68
2021/08/09 07:02:08;;;;;;;18.17;6.40;;;20.10;99.90;;;;;;5112206;28;20479;-67
2021/08/09 07:04:35;;;;;;;8.17;5.00;;;20.10;99.90;;;;;;5115473;27;20473;-67
2021/08/09 07:07:02;;;;;;;3.60;2.80;;;20.10;99.90;;;;;;5102762;28;20468;-67
2021/08/09 07:09:30;;;;;;;2.43;2.23;;;20.10;99.90;;;;;;5115045;27;20473;-67
2021/08/09 07:11:57;;;;;;;6.20;2.80;;;20.20;99.90;;;;;;5115985;27;20474;-67
2021/08/09 07:14:24;;;;;;;3.90;2.90;;;20.10;99.80;;;;;;5102617;28;21138;-67
2021/08/09 07:16:51;;;;;;;4.30;3.00;;;20.10;99.70;;;;;;5101973;27;20457;-67
2021/08/09 07:19:18;;;;;;;3.13;2.50;;;20.30;99.90;;;;;;5108547;27;20480;-67
2021/08/09 07:21:45;;;;;;;2.30;2.10;;;20.30;99.90;;;;;;5108879;28;20465;-66
2021/08/09 07:24:12;;;;;;;6.47;2.77;;;20.30;99.90;;;;;;5102987;28;20923;-67
2021/08/09 07:26:41;;;;;;;3.17;2.70;;;20.40;99.80;;;;;;5114867;27;20814;-67
2021/08/09 07:29:07;;;;;;;8.07;6.87;;;20.40;99.70;;;;;;5102678;28;20477;-67
2021/08/09 07:31:34;;;;;;;5.20;4.70;;;20.50;99.70;;;;;;5101731;27;20469;-67
2021/08/09 07:34:01;;;;;;;3.10;2.83;;;20.50;99.60;;;;;;5107819;28;20461;-67
2021/08/09 07:36:28;;;;;;;4.80;2.60;;;20.70;99.60;;;;;;5101957;28;20466;-67
2021/08/09 07:38:55;;;;;;;2.60;2.40;;;20.80;99.60;;;;;;5115325;28;20464;-67
2021/08/09 07:41:22;;;;;;;5.57;2.83;;;20.90;99.60;;;;;;5115256;27;20461;-67
2021/08/09 07:43:51;;;;;;;2.83;2.60;;;20.90;99.40;;;;;;5115000;27;20478;-67
2021/08/09 07:46:18;;;;;;;3.17;2.00;;;20.90;99.20;;;;;;5101360;28;20803;-67
2021/08/09 07:48:45;;;;;;;2.90;2.60;;;21.00;99.10;;;;;;5105006;27;20476;-68
2021/08/09 07:51:12;;;;;;;3.43;2.83;;;21.10;99.10;;;;;;5108141;27;20467;-67
2021/08/09 07:53:38;;;;;;;5.10;2.77;;;21.10;98.60;;;;;;5104066;28;20469;-67
2021/08/09 07:56:06;;;;;;;2.67;2.30;;;21.20;98.50;;;;;;5101177;28;20951;-67
2021/08/09 07:58:32;;;;;;;2.60;2.00;;;21.20;98.50;;;;;;5104873;28;20469;-67
2021/08/09 08:01:01;;;;;;;2.20;2.00;;;21.20;98.50;;;;;;5110908;27;20468;-67
2021/08/09 08:03:28;;;;;;;5.97;3.63;;;21.20;98.60;;;;;;5114755;28;20476;-68
2021/08/09 08:05:55;;;;;;;11.10;3.30;;;21.30;98.60;;;;;;5114545;27;20460;-67
2021/08/09 08:08:22;;;;;;;7.60;4.37;;;21.30;98.40;;;;;;5104375;27;20481;-67
2021/08/09 08:10:49;;;;;;;7.00;3.77;;;21.30;98.40;;;;;;5114154;27;20464;-68
2021/08/09 08:13:16;;;;;;;3.70;3.40;;;21.20;98.00;;;;;;5104311;27;20471;-68
2021/08/09 08:15:43;;;;;;;4.70;2.90;;;21.20;98.10;;;;;;5107298;28;20472;-68
2021/08/09 08:18:11;;;;;;;3.00;2.80;;;21.10;98.00;;;;;;5105383;28;20814;-68
2021/08/09 08:20:38;;;;;;;2.70;2.30;;;21.00;98.20;;;;;;5100722;28;20473;-67
2021/08/09 08:23:05;;;;;;;1.93;1.83;;;21.00;98.30;;;;;;5103241;28;20970;-68
2021/08/09 08:25:33;;;;;;;2.07;1.70;;;21.00;98.40;;;;;;5112900;27;20457;-68
2021/08/09 08:28:00;;;;;;;2.40;2.20;;;21.00;98.40;;;;;;5102835;28;21228;-68
2021/08/09 08:30:27;;;;;;;4.27;3.27;;;21.00;98.50;;;;;;5107701;28;20469;-67
2021/08/09 08:32:54;;;;;;;4.63;3.60;;;21.00;98.50;;;;;;5105542;28;20461;-68
2021/08/09 08:35:23;;;;;;;4.53;3.07;;;21.10;98.50;;;;;;5100528;28;20513;-67
2021/08/09 08:37:50;;;;;;;3.60;3.30;;;21.00;98.50;;;;;;5105698;28;20795;-69
2021/08/09 08:40:17;;;;;;;2.77;2.53;;;21.00;98.70;;;;;;5114227;27;20465;-69
2021/08/09 08:42:46;;;;;;;2.97;2.50;;;21.00;98.80;;;;;;5113735;27;20819;-67
2021/08/09 08:45:18;;;;;;;3.83;2.20;;;21.00;98.70;;;;;;5101025;28;20860;-67
2021/08/09 08:47:47;;;;;;;3.37;2.90;;;21.00;98.70;;;;;;5112093;28;20942;-67
2021/08/09 08:50:16;;;;;;;5.63;3.00;;;21.00;98.70;;;;;;5102437;28;20534;-67
2021/08/09 08:52:47;;;;;;;3.13;2.60;;;21.10;98.90;;;;;;5099991;28;20461;-67
2021/08/09 08:55:15;;;;;;;3.83;2.43;;;21.10;98.80;;;;;;5104161;28;20469;-69
2021/08/09 08:57:42;;;;;;;2.53;2.33;;;21.10;98.80;;;;;;5106619;28;20800;-68
2021/08/09 09:00:10;;;;;;;2.60;2.40;;;21.20;98.80;;;;;;5103456;28;20465;-67
2021/08/09 09:02:38;;;;;;;3.40;2.80;;;21.20;98.70;;;;;;5113201;28;20483;-68
2021/08/09 09:05:10;;;;;;;3.17;2.80;;;21.20;98.40;;;;;;5113406;27;20798;-68
2021/08/09 09:07:40;;;;;;;2.80;2.60;;;21.20;98.50;;;;;;5109390;28;20813;-68
2021/08/09 09:10:23;;;;;;;5.20;4.70;;;21.20;98.50;;;;;;5107565;27;21248;-68
2021/08/09 09:13:09;;;;;;;5.70;4.80;;;21.20;98.10;;;;;;5100282;28;20507;-68
2021/08/09 09:15:56;;;;;;;4.87;4.47;;;21.30;98.00;;;;;;5110214;28;20461;-68
2021/08/09 09:18:24;;;;;;;3.33;2.70;;;21.40;98.10;;;;;;5112269;28;20456;-68
2021/08/09 09:20:51;;;;;;;2.47;2.00;;;21.40;97.80;;;;;;5107040;28;20461;-68
2021/08/09 09:23:21;;;;;;;2.70;2.50;;;21.50;97.80;;;;;;5106182;28;21076;-68
2021/08/09 09:25:50;;;;;;;2.37;2.17;;;21.60;97.80;;;;;;5099914;28;21078;-68
2021/08/09 09:28:30;;;;;;;2.57;2.37;;;21.60;98.00;;;;;;5099574;28;20823;-68
2021/08/09 09:31:02;;;;;;;2.70;2.50;;;21.70;98.00;;;;;;5103945;28;20457;-68
2021/08/09 09:33:31;;;;;;;2.97;2.60;;;21.70;98.00;;;;;;5106453;28;20481;-67
2021/08/09 09:36:02;;;;;;;4.30;2.70;;;21.70;98.00;;;;;;5098216;28;20461;-68
2021/08/09 09:38:28;;;;;;;4.43;2.50;;;21.80;97.80;;;;;;5110463;28;20472;-68
2021/08/09 09:41:07;;;;;;;2.57;2.10;;;21.80;97.80;;;;;;5112535;27;20483;-68
2021/08/09 09:43:42;;;;;;;2.70;2.47;;;21.80;97.60;;;;;;5112476;28;20548;-68
2021/08/09 09:46:21;;;;;;;2.83;2.63;;;21.90;97.60;;;;;;5099260;28;20480;-68
2021/08/09 09:48:48;;;;;;;7.60;4.90;;;21.90;97.60;;;;;;5103391;27;20963;-68
2021/08/09 09:51:17;;;;;;;3.63;3.20;;;22.00;97.70;;;;;;5106076;28;20464;-68
2021/08/09 09:53:46;;;;;;;3.20;2.40;;;22.00;97.40;;;;;;5101523;28;21003;-68
2021/08/09 09:56:14;;;;;;;3.10;2.80;;;22.10;97.30;;;;;;5099456;28;20960;-68
2021/08/09 09:58:41;;;;;;;3.53;2.80;;;22.10;97.10;;;;;;5102150;28;20816;-68
2021/08/09 10:01:10;;;;;;;3.80;2.13;;;22.20;96.80;;;;;;5104941;28;20464;-68
2021/08/09 10:03:39;;;;;;;5.40;2.90;;;22.30;97.00;;;;;;5112536;27;20465;-68
2021/08/09 10:06:06;;;;;;;2.87;2.67;;;22.30;96.80;;;;;;5112698;27;20468;-68
2021/08/09 10:08:35;;;;;;;5.20;3.20;;;22.30;96.20;;;;;;5112592;28;20479;-68
2021/08/09 10:11:05;;;;;;;4.63;3.00;;;22.40;96.30;;;;;;5112583;28;20479;-68
2021/08/09 10:13:36;;;;;;;3.30;2.90;;;22.50;96.10;;;;;;5112346;27;20487;-69
2021/08/09 10:16:07;;;;;;;3.37;2.80;;;22.50;96.00;;;;;;5113175;27;20461;-69
2021/08/09 10:18:36;;;;;;;3.20;2.50;;;22.60;95.70;;;;;;5116990;27;20468;-67
2021/08/09 10:21:05;;;;;;;3.17;2.87;;;22.70;95.70;;;;;;5109298;28;20796;-67
2021/08/09 10:23:37;;;;;;;2.70;2.40;;;22.70;95.50;;;;;;5110017;27;20464;-67
2021/08/09 10:26:04;;;;;;;2.87;2.00;;;22.80;95.50;;;;;;5108769;27;20448;-67
2021/08/09 10:29:04;;;;;;;2.63;2.43;;;22.80;95.20;;;;;;5116110;27;20818;-67
2021/08/09 10:31:34;;;;;;;4.70;2.97;;;22.90;94.90;;;;;;5115777;27;20448;-67
2021/08/09 10:34:03;;;;;;;7.33;6.67;;;23.10;95.00;;;;;;5116613;27;20474;-68
2021/08/09 10:36:49;;;;;;;6.30;3.60;;;23.10;94.50;;;;;;5108900;27;20468;-67
2021/08/09 10:39:49;;;;;;;4.43;2.83;;;23.20;94.30;;;;;;5109694;28;20813;-68
2021/08/09 10:42:30;;;;;;;20.73;18.83;;;23.30;93.90;;;;;;5107930;27;20464;-68
2021/08/09 10:44:59;;;;;;;3.47;3.17;;;23.40;94.20;;;;;;5108599;27;20467;-68
2021/08/09 10:47:56;;;;;;;58.03;52.37;;;23.40;93.70;;;;;;5113503;27;21617;-67
2021/08/09 10:50:48;;;;;;;11.57;9.80;;;23.50;94.20;;;;;;5107420;27;20467;-68
2021/08/09 10:53:47;;;;;;;6.37;5.70;;;23.50;92.90;;;;;;5112961;27;20525;-68
2021/08/09 10:56:48;;;;;;;6.87;6.27;;;23.60;92.60;;;;;;5103333;27;20464;-68
2021/08/09 10:59:40;;;;;;;25.00;22.50;;;23.70;92.40;;;;;;5106647;27;20464;-68
2021/08/09 11:02:16;;;;;;;12.17;11.00;;;23.80;91.50;;;;;;5108415;27;20901;-68
2021/08/09 11:04:43;;;;;;;9.87;9.10;;;23.90;91.80;;;;;;5107443;27;20469;-67
2021/08/09 11:07:17;;;;;;;13.40;12.13;;;23.90;91.80;;;;;;5102763;27;20515;-67
2021/08/09 11:09:45;;;;;;;11.77;9.00;;;23.90;90.10;;;;;;5104437;27;20472;-67
2021/08/09 11:12:21;;;;;;;16.20;14.50;;;23.90;90.10;;;;;;5102684;28;20529;-67
2021/08/09 11:15:10;;;;;;;44.57;40.07;;;24.00;90.10;;;;;;5099778;27;20475;-68
2021/08/09 11:17:50;;;;;;;31.60;28.50;;;24.10;91.20;;;;;;5106259;27;21191;-67
2021/08/09 11:20:21;;;;;;;25.50;22.90;;;24.20;91.60;;;;;;5102952;28;20468;-67
2021/08/09 11:22:50;;;;;;;16.97;15.33;;;24.20;92.10;;;;;;5103971;27;20895;-68
2021/08/09 11:25:27;;;;;;;3.63;2.47;;;24.30;90.40;;;;;;5103707;27;20470;-70
2021/08/09 11:27:59;;;;;;;16.40;14.70;;;24.30;85.50;;;;;;5107932;27;20473;-67
2021/08/09 11:30:33;;;;;;;4.40;4.00;;;24.40;89.00;;;;;;5108704;27;21200;-69
2021/08/09 11:33:01;;;;;;;10.93;9.93;;;24.50;85.80;;;;;;5108739;27;20473;-67
2021/08/09 11:35:28;;;;;;;11.03;8.90;;;24.60;87.80;;;;;;5108410;27;20461;-66
2021/08/09 11:37:59;;;;;;;13.60;11.10;;;24.60;88.30;;;;;;5106586;27;20982;-65
2021/08/09 11:40:44;;;;;;;3.17;2.03;;;24.60;89.50;;;;;;5112936;27;20544;-66
2021/08/09 11:43:13;;;;;;;4.60;4.00;;;24.60;85.80;;;;;;5108165;27;20476;-68
2021/08/09 11:45:40;;;;;;;3.70;2.30;;;24.60;85.60;;;;;;5112544;27;20449;-67
2021/08/09 11:48:09;;;;;;;3.60;3.30;;;24.60;83.50;;;;;;5101680;27;20473;-70
2021/08/09 11:50:41;;;;;;;6.47;5.87;;;24.60;84.50;;;;;;5102558;27;20539;-66
2021/08/09 11:53:10;;;;;;;4.97;3.93;;;24.70;87.30;;;;;;5109162;27;20464;-63
2021/08/09 11:55:40;;;;;;;3.57;2.70;;;24.70;86.70;;;;;;5108651;27;20456;-63
2021/08/09 11:58:07;;;;;;;2.50;2.03;;;24.70;83.80;;;;;;5109089;27;20488;-64
2021/08/09 12:00:39;;;;;;;3.33;3.03;;;24.70;84.10;;;;;;5106291;27;20482;-62
2021/08/09 12:03:12;;;;;;;12.43;7.93;;;24.80;84.10;;;;;;5109031;27;20985;-63
2021/08/09 12:05:39;;;;;;;14.83;12.63;;;24.80;87.10;;;;;;5106189;27;20444;-64
2021/08/09 12:08:07;;;;;;;8.83;7.80;;;24.80;88.40;;;;;;5102667;28;20472;-64
2021/08/09 12:10:34;;;;;;;12.30;11.00;;;24.70;85.50;;;;;;5107068;27;20564;-63
2021/08/09 12:13:02;;;;;;;22.40;18.80;;;24.80;86.40;;;;;;5106913;27;20475;-65
2021/08/09 12:15:29;;;;;;;15.50;13.20;;;24.80;88.30;;;;;;5105789;27;20473;-63
2021/08/09 12:18:08;;;;;;;12.33;10.20;;;24.80;87.80;;;;;;5111884;27;20465;-63
2021/08/09 12:20:37;;;;;;;16.90;12.77;;;24.90;86.50;;;;;;5111621;27;20473;-67
2021/08/09 12:23:23;;;;;;;10.40;8.10;;;24.90;86.80;;;;;;5111034;27;20477;-64
2021/08/09 12:25:49;;;;;;;6.50;5.80;;;24.90;86.90;;;;;;5110301;27;20457;-67
2021/08/09 12:28:29;;;;;;;6.90;6.20;;;25.00;85.90;;;;;;5108996;27;20472;-64
2021/08/09 12:30:56;;;;;;;8.30;7.20;;;25.00;85.20;;;;;;5103860;27;21265;-64
2021/08/09 12:33:23;;;;;;;17.67;15.83;;;24.90;84.30;;;;;;5114665;27;20472;-64
2021/08/09 12:35:51;;;;;;;6.30;4.87;;;25.00;84.90;;;;;;5112317;27;20478;-67
2021/08/09 12:38:18;;;;;;;22.80;18.73;;;24.90;84.60;;;;;;5106572;27;20473;-65
2021/08/09 12:40:47;;;;;;;14.73;13.10;;;24.90;85.00;;;;;;5106895;27;20811;-67
2021/08/09 12:43:16;;;;;;;26.47;23.97;;;24.90;85.30;;;;;;5108611;27;20484;-64
2021/08/09 12:45:44;;;;;;;15.57;13.63;;;25.00;86.00;;;;;;5114396;27;20464;-65
2021/08/09 12:48:13;;;;;;;22.27;20.27;;;25.00;85.20;;;;;;5106918;28;20465;-69
2021/08/09 12:50:42;;;;;;;22.93;20.77;;;25.00;86.50;;;;;;5113515;27;20464;-65
2021/08/09 12:53:11;;;;;;;57.27;51.87;;;25.00;87.30;;;;;;5109931;27;20949;-63
2021/08/09 12:55:38;;;;;;;14.23;12.50;;;25.10;87.60;;;;;;5109381;27;20848;-67
2021/08/09 12:58:07;;;;;;;36.63;33.30;;;25.10;84.50;;;;;;5115135;27;20468;-65